Time;durP1;ratioP1;P1;durP2;ratioP2;P2;SDS_P1;SDS_P2;PMS_P1;PMS_P2;Temp;Humidity;BMP_temperature;BMP_pressure;BME280_temperature;BME280_humidity;BME280_pressure;Samples;Min_cycle;Max_cycle;Signal;HPM_P1;HPM_P2
2023/11/02 00:00:09;;;;;;;3.33;1.30;;;11.30;99.90;;;11.79;100.00;96172.56;5028457;28;20496;-84
2023/11/02 00:02:40;;;;;;;4.80;1.27;;;11.20;99.90;;;11.79;100.00;96162.06;5030917;28;20910;-84
2023/11/02 00:05:59;;;;;;;3.50;1.20;;;11.30;99.90;;;11.77;100.00;96158.88;5027951;28;20466;-84
2023/11/02 00:08:38;;;;;;;2.20;1.57;;;11.30;99.90;;;11.77;100.00;96149.22;5029073;28;20524;-84
2023/11/02 00:11:47;;;;;;;2.50;1.43;;;11.20;99.90;;;11.80;100.00;96153.19;5028253;28;21890;-84
2023/11/02 00:14:17;;;;;;;3.27;1.00;;;11.20;99.90;;;11.79;100.00;96146.34;5029472;28;20480;-84
2023/11/02 00:16:48;;;;;;;4.70;1.50;;;11.30;99.90;;;11.76;100.00;96141.59;5026408;28;21283;-84
2023/11/02 00:19:32;;;;;;;2.00;1.20;;;11.30;99.90;;;11.77;100.00;96124.84;5028729;28;20552;-84
2023/11/02 00:22:08;;;;;;;8.70;1.27;;;11.30;99.90;;;11.73;100.00;96121.91;5025998;28;21103;-84
2023/11/02 00:24:43;;;;;;;10.60;1.43;;;11.30;99.90;;;11.69;100.00;96117.41;5028329;28;20898;-84
2023/11/02 00:27:12;;;;;;;4.63;1.53;;;11.20;99.90;;;11.72;100.00;96101.22;5025503;28;20945;-84
2023/11/02 00:29:43;;;;;;;8.90;1.70;;;11.10;99.90;;;11.73;100.00;96095.72;5026488;28;20486;-84
2023/11/02 00:32:14;;;;;;;3.00;1.40;;;11.10;99.90;;;11.69;100.00;96097.25;5029080;28;20474;-84
2023/11/02 00:34:45;;;;;;;1.77;1.07;;;11.10;99.90;;;11.72;100.00;96094.16;5024590;28;20454;-85
2023/11/02 00:37:16;;;;;;;8.10;1.40;;;11.00;99.90;;;11.73;100.00;96094.97;5028271;28;20469;-84
2023/11/02 00:39:46;;;;;;;4.03;1.20;;;11.00;99.90;;;11.70;100.00;96077.09;5027006;28;20989;-84
2023/11/02 00:42:16;;;;;;;3.70;1.40;;;11.10;99.90;;;11.66;100.00;96068.13;5027355;28;20466;-84
2023/11/02 00:44:48;;;;;;;2.50;1.20;;;11.10;99.90;;;11.65;100.00;96067.34;5029574;28;20466;-84
2023/11/02 00:47:19;;;;;;;2.03;1.20;;;11.00;99.90;;;11.61;100.00;96056.56;5029333;28;20465;-84
2023/11/02 00:49:59;;;;;;;4.17;1.63;;;11.10;99.90;;;11.63;100.00;96046.63;5028016;28;20488;-84
2023/11/02 00:52:28;;;;;;;4.60;1.30;;;10.90;99.90;;;11.59;100.00;96037.66;5024492;28;20838;-84
2023/11/02 00:55:01;;;;;;;4.90;1.27;;;11.00;99.90;;;11.58;100.00;96023.03;5029660;28;20469;-84
2023/11/02 00:57:38;;;;;;;9.97;1.40;;;10.90;99.90;;;11.57;100.00;96018.00;5028438;28;20462;-84
2023/11/02 01:00:53;;;;;;;6.57;1.30;;;10.80;99.90;;;11.51;100.00;96011.13;5026846;28;20470;-85
2023/11/02 01:03:24;;;;;;;2.13;1.00;;;10.80;99.90;;;11.49;100.00;96000.91;5028248;28;20454;-84
2023/11/02 01:05:56;;;;;;;1.90;1.50;;;10.70;99.90;;;11.43;100.00;95996.63;5019988;28;21081;-85
2023/11/02 01:08:31;;;;;;;1.23;1.00;;;10.60;99.90;;;11.41;100.00;95993.50;5026491;28;20540;-84
2023/11/02 01:11:01;;;;;;;4.07;1.73;;;10.60;99.90;;;11.35;100.00;95983.97;5027302;28;20523;-85
2023/11/02 01:13:31;;;;;;;2.93;1.20;;;10.60;99.90;;;11.36;100.00;95985.56;5026634;28;20466;-84
2023/11/02 01:16:08;;;;;;;3.53;1.30;;;10.60;99.90;;;11.34;100.00;95971.16;5027295;28;20545;-84
2023/11/02 01:18:45;;;;;;;3.30;1.33;;;10.60;99.90;;;11.29;100.00;95968.44;5029951;28;20504;-84
2023/11/02 01:21:18;;;;;;;1.77;1.20;;;10.40;99.90;;;11.25;100.00;95947.22;5028580;28;20485;-84
2023/11/02 01:23:54;;;;;;;3.10;1.20;;;10.40;99.90;;;11.29;100.00;95944.91;5032865;28;20524;-84
2023/11/02 01:27:25;;;;;;;7.50;1.10;;;10.30;99.90;;;11.24;100.00;95940.41;5031989;28;21022;-85
2023/11/02 01:29:55;;;;;;;9.30;1.40;;;10.30;99.90;;;11.26;100.00;95934.94;5029240;28;20454;-84
2023/11/02 01:32:24;;;;;;;3.00;1.40;;;10.30;99.90;;;11.22;100.00;95916.31;5030740;28;20485;-84
2023/11/02 01:34:55;;;;;;;2.50;1.60;;;10.30;99.90;;;11.14;100.00;95915.94;5033974;28;20456;-84
2023/11/02 01:37:29;;;;;;;6.93;1.40;;;10.10;99.90;;;11.13;100.00;95894.22;5031246;28;20491;-85
2023/11/02 01:40:25;;;;;;;4.57;1.00;;;10.10;99.90;;;11.12;100.00;95890.03;5031505;28;20509;-84
2023/11/02 01:42:56;;;;;;;2.50;1.40;;;10.20;99.90;;;11.05;100.00;95878.97;5033410;28;20465;-84
2023/11/02 01:45:29;;;;;;;1.93;1.10;;;10.20;99.90;;;10.98;100.00;95868.69;5032507;28;20469;-84
2023/11/02 01:48:13;;;;;;;2.80;1.50;;;10.10;99.90;;;10.98;100.00;95862.66;5032690;28;20493;-84
2023/11/02 01:51:02;;;;;;;4.30;1.30;;;10.20;99.90;;;11.00;100.00;95865.84;5033514;28;20526;-84
2023/11/02 01:53:50;;;;;;;5.33;1.20;;;10.20;99.90;;;10.94;100.00;95872.81;5031502;28;20786;-84
2023/11/02 01:57:00;;;;;;;3.53;1.20;;;10.10;99.90;;;10.92;100.00;95868.88;5033180;28;20470;-85
2023/11/02 01:59:43;;;;;;;1.40;1.00;;;10.10;99.90;;;10.89;100.00;95870.16;5029176;28;20859;-84
2023/11/02 02:02:25;;;;;;;1.80;1.30;;;10.10;99.90;;;10.89;100.00;95859.69;5030747;28;20938;-84
2023/11/02 02:05:04;;;;;;;3.20;1.40;;;10.10;99.90;;;10.91;100.00;95854.19;5030318;28;20453;-85
2023/11/02 02:07:49;;;;;;;6.00;1.33;;;10.00;99.90;;;10.86;100.00;95848.91;5028696;28;20967;-84
2023/11/02 02:10:43;;;;;;;3.13;1.40;;;10.10;99.90;;;10.85;100.00;95834.25;5031428;28;20457;-84
2023/11/02 02:13:33;;;;;;;5.80;1.17;;;10.00;99.90;;;10.77;100.00;95824.22;5029559;28;21008;-84
2023/11/02 02:16:14;;;;;;;3.10;1.33;;;10.00;99.90;;;10.75;100.00;95827.09;5029498;28;20488;-83
2023/11/02 02:18:49;;;;;;;6.80;1.20;;;9.90;99.90;;;10.80;100.00;95813.28;5031025;28;20457;-84
2023/11/02 02:21:30;;;;;;;3.40;1.30;;;10.00;99.90;;;10.72;100.00;95817.13;5031517;28;20489;-84
2023/11/02 02:24:08;;;;;;;2.63;1.30;;;9.90;99.90;;;10.71;100.00;95822.59;5030103;28;21032;-84
2023/11/02 02:27:27;;;;;;;3.80;1.17;;;9.90;99.90;;;10.70;100.00;95823.59;5029595;28;20458;-84
2023/11/02 02:30:35;;;;;;;5.53;1.60;;;9.90;99.90;;;10.70;100.00;95821.00;4991614;28;20468;-85
2023/11/02 02:33:45;;;;;;;2.03;1.13;;;10.00;99.90;;;10.71;100.00;95805.06;4999137;28;20547;-84
2023/11/02 02:36:25;;;;;;;2.90;1.20;;;10.00;99.90;;;10.73;100.00;95810.84;5009485;28;20472;-84
2023/11/02 02:39:05;;;;;;;2.67;1.10;;;9.90;99.90;;;10.73;100.00;95799.59;5027597;28;20480;-84
2023/11/02 02:41:40;;;;;;;4.00;1.23;;;9.80;99.90;;;10.72;100.00;95790.19;5030062;28;20485;-84
2023/11/02 02:44:11;;;;;;;1.37;1.00;;;10.00;99.90;;;10.74;100.00;95773.22;5030014;28;20565;-84
2023/11/02 02:46:42;;;;;;;2.50;1.20;;;10.00;99.90;;;10.74;100.00;95762.75;5031511;28;20555;-84
2023/11/02 02:49:13;;;;;;;2.73;1.00;;;9.90;99.90;;;10.76;100.00;95749.47;5028986;28;20520;-84
2023/11/02 02:51:48;;;;;;;8.93;1.67;;;10.00;99.90;;;10.78;100.00;95742.16;5028734;28;20469;-84
2023/11/02 02:54:22;;;;;;;1.87;1.40;;;10.00;99.90;;;10.77;100.00;95740.56;5028687;28;20844;-83
2023/11/02 02:56:57;;;;;;;10.33;1.40;;;10.00;99.90;;;10.79;100.00;95728.84;5027692;28;21036;-83
2023/11/02 02:59:29;;;;;;;1.90;1.30;;;10.00;99.90;;;10.79;100.00;95717.59;5031449;28;20548;-83
2023/11/02 03:02:00;;;;;;;1.87;1.27;;;10.00;99.90;;;10.81;100.00;95705.06;5029179;28;21035;-84
2023/11/02 03:04:30;;;;;;;1.93;1.23;;;10.00;99.90;;;10.83;100.00;95695.94;5030883;28;20462;-84
2023/11/02 03:07:03;;;;;;;6.33;1.33;;;9.90;99.90;;;10.83;100.00;95682.84;5029605;28;20508;-84
2023/11/02 03:09:38;;;;;;;7.00;1.30;;;9.90;99.90;;;10.78;100.00;95674.97;5031712;28;20876;-84
2023/11/02 03:12:12;;;;;;;2.50;1.10;;;10.00;99.90;;;10.80;100.00;95659.81;5031163;28;20489;-84
2023/11/02 03:14:43;;;;;;;2.90;1.27;;;10.00;99.90;;;10.76;100.00;95665.81;5028692;28;20462;-83
2023/11/02 03:17:28;;;;;;;6.13;1.00;;;9.90;99.90;;;10.79;100.00;95658.28;5027398;28;20462;-84
2023/11/02 03:19:58;;;;;;;2.13;1.00;;;10.00;99.90;;;10.75;100.00;95664.22;5028204;28;20957;-84
2023/11/02 03:22:30;;;;;;;7.00;1.27;;;9.90;99.90;;;10.75;100.00;95665.03;5030482;28;20496;-83
2023/11/02 03:25:09;;;;;;;2.83;1.07;;;10.00;99.90;;;10.78;100.00;95677.59;5028436;28;20540;-83
2023/11/02 03:27:59;;;;;;;4.30;1.20;;;10.00;99.90;;;10.77;100.00;95672.59;5031370;28;20458;-83
2023/11/02 03:30:48;;;;;;;2.93;1.30;;;10.00;99.90;;;10.78;100.00;95653.28;5029770;28;20471;-83
2023/11/02 03:33:34;;;;;;;8.93;1.00;;;10.00;99.90;;;10.75;100.00;95636.28;5030608;28;20484;-84
2023/11/02 03:36:11;;;;;;;2.33;1.40;;;10.10;99.90;;;10.76;100.00;95643.06;5027637;28;20559;-83
2023/11/02 03:39:06;;;;;;;1.50;1.17;;;10.20;99.90;;;10.76;100.00;95611.69;5028934;28;20814;-83
2023/11/02 03:41:57;;;;;;;2.20;1.27;;;10.10;99.90;;;10.74;100.00;95599.91;5027764;28;20895;-83
2023/11/02 03:44:40;;;;;;;4.60;1.27;;;10.20;99.90;;;10.77;100.00;95609.88;5029821;28;20465;-83
2023/11/02 03:47:27;;;;;;;3.17;1.00;;;10.10;99.90;;;10.78;100.00;95617.47;5028217;28;21051;-83
2023/11/02 03:50:17;;;;;;;4.30;1.30;;;10.10;99.90;;;10.79;100.00;95597.34;5027259;28;20549;-82
2023/11/02 03:53:05;;;;;;;2.37;1.40;;;10.10;99.90;;;10.80;100.00;95588.47;5026702;28;20992;-83
2023/11/02 03:55:51;;;;;;;1.80;1.20;;;10.10;99.90;;;10.78;100.00;95569.63;5027565;28;21079;-82
2023/11/02 03:58:35;;;;;;;4.03;1.60;;;10.10;99.90;;;10.78;100.00;95570.41;5027948;28;20472;-83
2023/11/02 04:01:21;;;;;;;6.30;1.13;;;10.20;99.90;;;10.73;100.00;95557.28;5027968;28;20490;-83
2023/11/02 04:03:56;;;;;;;1.70;1.00;;;10.00;99.90;;;10.75;100.00;95570.13;5028027;28;20508;-83
2023/11/02 04:06:43;;;;;;;1.93;1.27;;;10.10;99.90;;;10.69;100.00;95555.44;5027417;28;20527;-83
2023/11/02 04:09:20;;;;;;;1.27;1.10;;;10.00;99.90;;;10.68;100.00;95546.03;5028657;28;20528;-83
2023/11/02 04:12:01;;;;;;;1.87;1.10;;;10.00;99.90;;;10.70;100.00;95536.09;5024466;28;21182;-82
2023/11/02 04:14:35;;;;;;;6.57;2.87;;;10.00;99.90;;;10.66;100.00;95535.81;5024146;28;20472;-82
2023/11/02 04:17:07;;;;;;;2.50;1.50;;;10.00;99.90;;;10.70;100.00;95525.63;5023730;28;21080;-82
2023/11/02 04:19:36;;;;;;;4.33;1.80;;;9.90;99.90;;;10.72;100.00;95521.75;5025860;28;20470;-82
2023/11/02 04:22:08;;;;;;;6.30;1.50;;;9.90;99.90;;;10.75;100.00;95525.69;5025499;28;20616;-82
2023/11/02 04:24:41;;;;;;;4.23;1.63;;;9.90;99.90;;;10.72;100.00;95518.34;5028358;28;20482;-83
2023/11/02 04:27:12;;;;;;;2.40;1.83;;;9.80;99.90;;;10.71;100.00;95524.63;5025979;28;20521;-83
2023/11/02 04:29:42;;;;;;;8.60;3.40;;;9.90;99.90;;;10.66;100.00;95514.91;5026613;28;20466;-83
2023/11/02 04:32:12;;;;;;;5.40;1.90;;;9.90;99.90;;;10.68;100.00;95506.81;5026796;28;20557;-83
2023/11/02 04:34:43;;;;;;;2.17;1.40;;;9.80;99.90;;;10.69;100.00;95508.41;5026676;28;20528;-82
2023/11/02 04:37:17;;;;;;;3.27;1.50;;;9.90;99.90;;;10.68;100.00;95493.75;5026564;28;20461;-83
2023/11/02 04:39:48;;;;;;;1.37;1.00;;;9.90;99.90;;;10.68;100.00;95488.53;5027214;28;20458;-80
2023/11/02 04:42:21;;;;;;;1.90;1.40;;;9.90;99.90;;;10.70;100.00;95486.44;5025130;28;21402;-82
2023/11/02 04:44:52;;;;;;;1.53;1.10;;;9.90;99.90;;;10.60;100.00;95472.28;5025224;28;20477;-80
2023/11/02 04:47:22;;;;;;;6.50;1.10;;;10.00;99.90;;;10.66;100.00;95480.13;5028777;28;20556;-80
2023/11/02 04:49:52;;;;;;;4.40;1.60;;;10.00;99.90;;;10.67;100.00;95479.09;5029214;28;20472;-80
2023/11/02 04:52:22;;;;;;;1.97;1.00;;;10.00;99.90;;;10.65;100.00;95455.84;5027200;28;20469;-79
2023/11/02 04:54:53;;;;;;;11.20;1.93;;;10.00;99.90;;;10.68;100.00;95452.72;5028616;28;20453;-78
2023/11/02 04:57:25;;;;;;;1.73;1.00;;;10.00;99.90;;;10.66;100.00;95454.00;5027685;28;20466;-80
2023/11/02 04:59:55;;;;;;;1.30;1.00;;;10.00;99.90;;;10.63;100.00;95433.59;5028455;28;20490;-80
2023/11/02 05:02:27;;;;;;;3.07;1.20;;;9.90;99.90;;;10.66;100.00;95446.16;5027714;28;20643;-80
2023/11/02 05:04:56;;;;;;;0.97;0.80;;;9.90;99.90;;;10.64;100.00;95432.56;5027256;28;20458;-79
2023/11/02 05:07:26;;;;;;;1.63;1.00;;;10.00;99.90;;;10.58;100.00;95424.72;5028397;28;20473;-80
2023/11/02 05:09:56;;;;;;;2.30;1.33;;;10.00;99.90;;;10.56;100.00;95413.72;5028331;28;20516;-79
2023/11/02 05:12:27;;;;;;;2.37;1.00;;;10.10;99.90;;;10.51;100.00;95405.84;5030499;28;20476;-79
2023/11/02 05:14:57;;;;;;;1.57;1.03;;;10.00;99.90;;;10.51;100.00;95399.84;5027225;28;20500;-80
2023/11/02 05:17:26;;;;;;;1.20;0.83;;;10.00;99.90;;;10.52;100.00;95383.88;5027777;28;20540;-80
2023/11/02 05:19:57;;;;;;;1.63;1.13;;;10.00;99.90;;;10.48;100.00;95380.19;5026576;28;20454;-80
2023/11/02 05:22:27;;;;;;;3.53;1.17;;;10.00;99.90;;;10.44;100.00;95381.75;5026202;28;20466;-79
2023/11/02 05:24:58;;;;;;;2.20;1.17;;;10.00;99.90;;;10.41;100.00;95377.03;5027133;28;20462;-80
2023/11/02 05:27:29;;;;;;;1.53;1.03;;;10.00;99.90;;;10.41;100.00;95371.78;5027632;28;21054;-80
2023/11/02 05:30:01;;;;;;;2.13;1.10;;;10.00;99.90;;;10.39;100.00;95363.44;5026127;28;20544;-80
2023/11/02 05:32:31;;;;;;;1.53;0.83;;;10.00;99.90;;;10.40;100.00;95372.84;5026940;28;20473;-80
2023/11/02 05:35:00;;;;;;;2.03;0.90;;;10.00;99.90;;;10.41;100.00;95365.81;5026634;28;20980;-80
2023/11/02 05:37:31;;;;;;;1.00;0.90;;;9.90;99.90;;;10.45;100.00;95372.06;5025569;28;21051;-79
2023/11/02 05:40:00;;;;;;;2.43;1.10;;;9.90;99.90;;;10.50;100.00;95365.06;5026591;28;20457;-81
2023/11/02 05:42:31;;;;;;;10.40;1.30;;;9.80;99.90;;;10.48;100.00;95252.19;5026118;28;20512;-80
2023/11/02 05:45:02;;;;;;;6.03;1.00;;;9.80;99.90;;;10.46;100.00;95246.44;5027162;28;21015;-77
2023/11/02 05:47:33;;;;;;;8.73;0.93;;;9.90;99.90;;;10.47;100.00;95237.56;5024590;28;20541;-79
2023/11/02 05:50:09;;;;;;;1.00;0.90;;;9.90;99.90;;;10.51;100.00;95256.94;5018679;28;20540;-81
2023/11/02 05:52:38;;;;;;;3.90;1.53;;;9.90;99.90;;;10.53;100.00;95286.19;5028029;28;20460;-78
2023/11/02 05:55:10;;;;;;;1.00;0.80;;;9.90;99.90;;;10.52;100.00;95315.97;5023157;28;20469;-81
2023/11/02 05:57:41;;;;;;;3.63;1.30;;;9.90;99.90;;;10.48;100.00;95309.66;5027060;28;20528;-80
2023/11/02 06:00:13;;;;;;;4.50;1.10;;;10.00;99.90;;;10.48;100.00;95324.56;5026390;28;20458;-80
2023/11/02 06:02:43;;;;;;;7.10;1.13;;;10.00;99.90;;;10.47;100.00;95313.34;5026784;28;20975;-80
2023/11/02 06:05:14;;;;;;;2.17;0.90;;;9.90;99.90;;;10.45;100.00;95299.72;5029654;28;20514;-80
2023/11/02 06:07:43;;;;;;;1.97;1.10;;;9.80;99.90;;;10.46;100.00;95275.19;5030428;28;20457;-79
2023/11/02 06:10:15;;;;;;;1.27;0.90;;;9.90;99.90;;;10.49;100.00;95232.06;5032807;28;20468;-80
2023/11/02 06:12:46;;;;;;;1.87;1.10;;;10.00;99.90;;;10.49;100.00;95192.88;5028470;28;20450;-80
2023/11/02 06:15:15;;;;;;;1.30;1.20;;;10.10;99.90;;;10.46;100.00;95151.59;5029428;28;20841;-80
2023/11/02 06:17:45;;;;;;;1.30;1.17;;;10.00;99.90;;;10.48;100.00;95147.69;5031450;28;20468;-79
2023/11/02 06:20:14;;;;;;;3.07;1.00;;;10.00;99.90;;;10.52;100.00;95245.41;5026834;28;20490;-80
2023/11/02 06:22:43;;;;;;;3.47;0.90;;;10.00;99.90;;;10.51;100.00;95162.09;5031704;28;20469;-80
2023/11/02 06:25:12;;;;;;;1.20;1.10;;;10.00;99.90;;;10.54;100.00;95131.00;5027741;28;20469;-82
2023/11/02 06:27:45;;;;;;;2.30;1.37;;;10.10;99.90;;;10.59;100.00;95101.47;5032002;28;20472;-80
2023/11/02 06:30:15;;;;;;;7.67;1.10;;;10.00;99.90;;;10.62;100.00;95118.47;5032401;28;20976;-80
2023/11/02 06:32:45;;;;;;;1.27;0.90;;;10.10;99.90;;;10.65;100.00;95146.69;5030397;28;20502;-80
2023/11/02 06:35:15;;;;;;;3.43;1.20;;;10.10;99.90;;;10.64;100.00;95135.44;5029286;28;20474;-80
2023/11/02 06:37:58;;;;;;;2.10;1.20;;;10.00;99.90;;;10.70;100.00;95102.25;5026893;28;20462;-80
2023/11/02 06:40:29;;;;;;;1.20;1.10;;;10.10;99.90;;;10.70;100.00;95117.94;5029709;28;20476;-80
2023/11/02 06:43:01;;;;;;;1.20;0.90;;;10.10;99.90;;;10.72;100.00;95220.41;5029178;28;20465;-80
2023/11/02 06:45:32;;;;;;;1.40;0.90;;;10.20;99.90;;;10.74;100.00;95219.09;5028455;28;20465;-80
2023/11/02 06:48:03;;;;;;;3.60;1.20;;;10.20;99.90;;;10.73;100.00;95180.94;5027747;28;20471;-80
2023/11/02 06:50:34;;;;;;;1.30;0.80;;;10.30;99.90;;;10.76;100.00;95183.03;5026339;28;20512;-80
2023/11/02 06:53:04;;;;;;;1.97;0.93;;;10.20;99.90;;;10.80;100.00;95206.81;5027670;28;20466;-80
2023/11/02 06:55:35;;;;;;;5.07;1.30;;;10.20;99.90;;;10.77;100.00;95171.53;5027636;28;20523;-80
2023/11/02 06:58:06;;;;;;;2.10;1.10;;;10.30;99.90;;;10.75;100.00;95159.78;5028202;28;20869;-80
2023/11/02 07:00:36;;;;;;;1.10;0.93;;;10.30;99.90;;;10.79;100.00;95186.97;5029456;28;20493;-81
2023/11/02 07:03:08;;;;;;;1.33;1.20;;;10.40;99.90;;;10.85;100.00;95184.09;5028194;28;20485;-80
2023/11/02 07:05:37;;;;;;;1.37;0.90;;;10.40;99.90;;;10.87;100.00;95165.53;5029429;28;20458;-80
2023/11/02 07:08:08;;;;;;;3.00;1.17;;;10.40;99.90;;;10.90;100.00;95150.13;5029883;28;20474;-81
2023/11/02 07:10:38;;;;;;;2.50;1.30;;;10.40;99.90;;;10.94;100.00;95186.97;5031374;28;20511;-81
2023/11/02 07:13:12;;;;;;;3.73;1.40;;;10.50;99.90;;;11.00;100.00;95165.06;5028311;28;20467;-81
2023/11/02 07:15:42;;;;;;;2.30;1.00;;;10.50;99.90;;;11.03;100.00;95164.53;5027831;28;20473;-80
2023/11/02 07:18:14;;;;;;;2.07;0.90;;;10.50;99.90;;;11.06;100.00;95164.00;5029540;28;20465;-82
2023/11/02 07:20:44;;;;;;;6.70;1.00;;;10.60;99.90;;;11.05;100.00;95120.59;5026908;28;21077;-81
2023/11/02 07:23:15;;;;;;;1.73;0.80;;;10.50;99.90;;;11.04;100.00;95130.25;5028560;28;20462;-79
2023/11/02 07:25:45;;;;;;;1.00;0.80;;;10.60;99.90;;;11.06;100.00;95127.38;5028921;28;20847;-80
2023/11/02 07:28:17;;;;;;;2.63;0.93;;;10.60;99.90;;;11.07;100.00;95111.41;5026689;28;20468;-80
2023/11/02 07:30:48;;;;;;;3.43;1.00;;;10.60;99.90;;;11.12;100.00;95118.50;5027781;28;20465;-80
2023/11/02 07:33:20;;;;;;;1.63;0.90;;;10.70;99.90;;;11.14;100.00;95071.16;5028866;28;20476;-81
2023/11/02 07:35:51;;;;;;;1.57;0.90;;;10.70;99.90;;;11.15;100.00;95115.34;5030889;28;20466;-80
2023/11/02 07:38:22;;;;;;;5.00;1.60;;;10.70;99.90;;;11.20;100.00;95154.59;5026360;28;20473;-81
2023/11/02 07:40:52;;;;;;;1.87;1.10;;;10.70;99.90;;;11.22;100.00;95136.00;5027755;28;20458;-81
2023/11/02 07:43:22;;;;;;;1.50;1.03;;;10.70;99.90;;;11.24;100.00;95094.69;5025755;28;20555;-79
2023/11/02 07:45:52;;;;;;;0.80;0.70;;;10.80;99.90;;;11.25;100.00;95080.53;5022875;28;20489;-81
2023/11/02 07:48:22;;;;;;;2.10;1.23;;;10.90;99.90;;;11.30;100.00;95117.97;5026491;28;20461;-81
2023/11/02 07:50:52;;;;;;;4.77;1.13;;;10.90;99.90;;;11.33;100.00;95108.78;5026553;28;20470;-82
2023/11/02 07:53:22;;;;;;;2.73;1.03;;;10.90;99.90;;;11.34;100.00;95063.28;5027017;28;20469;-81
2023/11/02 07:55:53;;;;;;;2.93;1.03;;;10.90;99.90;;;11.36;100.00;95032.41;5029614;28;20564;-81
2023/11/02 07:58:25;;;;;;;2.07;1.00;;;10.90;99.90;;;11.37;100.00;95052.28;5028228;28;20465;-81
2023/11/02 08:00:55;;;;;;;1.13;0.90;;;11.00;99.90;;;11.41;100.00;95061.97;5026838;28;20854;-81
2023/11/02 08:03:25;;;;;;;2.23;1.00;;;11.00;99.90;;;11.43;100.00;95043.38;5026657;28;21005;-81
2023/11/02 08:05:55;;;;;;;1.57;0.83;;;11.00;99.90;;;11.44;100.00;95039.72;5022748;28;20871;-81
2023/11/02 08:08:26;;;;;;;1.57;1.20;;;11.00;99.90;;;11.44;100.00;95043.13;5023297;28;20457;-81
2023/11/02 08:10:57;;;;;;;1.30;0.90;;;11.00;99.90;;;11.49;100.00;95063.22;5024585;28;20500;-81
2023/11/02 08:13:28;;;;;;;3.30;0.90;;;11.00;99.90;;;11.53;100.00;95065.06;5023180;28;20489;-81
2023/11/02 08:15:58;;;;;;;1.17;1.00;;;11.00;99.90;;;11.58;100.00;95072.13;5028761;28;20462;-81
2023/11/02 08:18:28;;;;;;;2.40;1.10;;;11.00;99.90;;;11.59;100.00;95043.03;5027822;28;20986;-81
2023/11/02 08:20:59;;;;;;;1.20;0.87;;;11.20;99.90;;;11.65;100.00;95022.09;5025922;28;20455;-81
2023/11/02 08:23:30;;;;;;;1.20;0.97;;;11.20;99.90;;;11.66;100.00;95042.00;5028390;28;20574;-81
2023/11/02 08:25:59;;;;;;;3.93;0.83;;;11.20;99.90;;;11.68;100.00;94993.56;5027053;28;20492;-81
2023/11/02 08:28:30;;;;;;;1.80;1.03;;;11.20;99.90;;;11.70;100.00;95001.16;5026965;28;20507;-81
2023/11/02 08:31:03;;;;;;;1.40;1.00;;;11.20;99.90;;;11.73;100.00;95019.72;5029071;28;20548;-81
2023/11/02 08:33:33;;;;;;;5.57;1.20;;;11.20;99.90;;;11.73;100.00;95013.75;5026440;28;20477;-81
2023/11/02 08:36:03;;;;;;;3.10;1.10;;;11.20;99.90;;;11.74;100.00;95002.19;5024602;28;20995;-81
2023/11/02 08:38:34;;;;;;;3.93;0.90;;;11.30;99.90;;;11.77;100.00;95014.75;5024807;28;20470;-81
2023/11/02 08:41:04;;;;;;;2.50;1.00;;;11.30;99.90;;;11.75;100.00;95014.25;5029381;28;20535;-81
2023/11/02 08:43:37;;;;;;;1.17;1.07;;;11.30;99.90;;;11.80;100.00;95022.09;5026012;28;20548;-80
2023/11/02 08:46:08;;;;;;;3.70;1.00;;;11.30;99.90;;;11.79;100.00;95021.28;5024999;28;20572;-79
2023/11/02 08:48:39;;;;;;;0.90;0.80;;;11.30;99.90;;;11.83;100.00;95021.53;5028888;28;20454;-79
2023/11/02 08:51:11;;;;;;;1.37;1.10;;;11.30;99.90;;;11.80;100.00;95016.84;5028249;28;20466;-81
2023/11/02 08:53:41;;;;;;;2.30;0.70;;;11.40;99.90;;;11.72;100.00;94996.47;5024011;28;20506;-78
2023/11/02 08:56:11;;;;;;;5.13;3.20;;;11.40;99.90;;;11.75;100.00;94993.28;5025641;28;20462;-81
2023/11/02 08:58:43;;;;;;;2.90;1.10;;;11.30;99.90;;;11.81;100.00;95008.72;5026299;28;20840;-81
2023/11/02 09:01:20;;;;;;;1.43;0.83;;;11.20;99.90;;;11.80;100.00;95003.75;5028141;28;20477;-82
2023/11/02 09:03:51;;;;;;;2.20;0.83;;;11.30;99.90;;;11.84;100.00;95023.88;5028264;28;20472;-81
2023/11/02 09:06:23;;;;;;;0.90;0.80;;;11.20;99.90;;;11.82;100.00;95014.72;5027003;28;20497;-81
2023/11/02 09:08:56;;;;;;;1.00;0.83;;;11.30;99.90;;;11.83;100.00;95021.53;5023697;28;20481;-81
2023/11/02 09:11:26;;;;;;;1.70;1.00;;;11.40;99.90;;;11.85;100.00;95033.31;5021140;28;20548;-81
2023/11/02 09:14:01;;;;;;;4.10;1.10;;;11.30;99.90;;;11.87;100.00;95048.75;5030068;28;20206;-81
2023/11/02 09:16:31;;;;;;;3.03;1.30;;;11.40;99.90;;;11.87;100.00;95036.41;5032487;28;20462;-80
2023/11/02 09:19:01;;;;;;;3.20;1.60;;;11.40;99.90;;;11.91;100.00;95016.50;5030874;28;20459;-81
2023/11/02 09:21:32;;;;;;;2.17;0.97;;;11.40;99.90;;;11.94;100.00;95021.19;5030147;28;20553;-81
2023/11/02 09:24:04;;;;;;;1.87;1.20;;;11.30;99.90;;;11.95;100.00;95014.91;5028326;28;20457;-81
2023/11/02 09:26:33;;;;;;;0.87;0.80;;;11.30;99.90;;;11.94;100.00;94992.41;5027086;28;20574;-81
2023/11/02 09:29:04;;;;;;;1.00;0.90;;;11.40;99.90;;;11.94;100.00;94991.63;5027553;28;20469;-81
2023/11/02 09:31:34;;;;;;;1.80;1.03;;;11.50;99.90;;;11.90;100.00;94983.53;5029050;28;20470;-81
2023/11/02 09:34:05;;;;;;;1.17;0.87;;;11.50;99.90;;;11.93;100.00;94998.72;5029298;28;20469;-81
2023/11/02 09:36:37;;;;;;;1.70;1.10;;;11.40;99.90;;;11.95;100.00;94987.94;5028660;28;20456;-81
2023/11/02 09:39:08;;;;;;;1.47;1.00;;;11.40;99.90;;;11.94;100.00;94992.41;5033168;28;20462;-81
2023/11/02 09:41:39;;;;;;;1.87;0.97;;;11.40;99.90;;;12.00;100.00;95006.25;5031690;28;20472;-81
2023/11/02 09:44:13;;;;;;;2.40;0.90;;;11.40;99.90;;;12.00;100.00;95006.25;5034797;28;20460;-82
2023/11/02 09:46:43;;;;;;;2.33;1.30;;;11.50;99.90;;;11.96;100.00;94998.16;5032735;28;21101;-80
2023/11/02 09:49:12;;;;;;;5.30;1.40;;;11.50;99.90;;;11.96;100.00;94998.16;5031095;28;20468;-79
2023/11/02 09:51:44;;;;;;;4.30;1.10;;;11.50;99.90;;;12.00;100.00;95028.00;5027845;28;20468;-79
2023/11/02 09:54:15;;;;;;;1.40;0.90;;;11.50;99.90;;;11.97;100.00;95038.22;5028493;28;20533;-76
2023/11/02 09:56:45;;;;;;;9.27;3.43;;;11.50;99.90;;;12.00;100.00;95038.47;5027215;28;20488;-79
2023/11/02 09:59:18;;;;;;;4.20;1.17;;;11.60;99.90;;;12.01;100.00;95019.06;5029945;28;20512;-79
2023/11/02 10:01:50;;;;;;;1.93;1.10;;;11.50;99.90;;;12.05;100.00;95014.88;5028729;28;20547;-79
2023/11/02 10:04:20;;;;;;;2.40;1.20;;;11.50;99.90;;;12.06;100.00;95026.13;5028470;28;20461;-79
2023/11/02 10:06:50;;;;;;;4.80;1.50;;;11.50;99.90;;;12.11;100.00;95020.88;5027752;28;20644;-80
2023/11/02 10:09:21;;;;;;;2.60;1.10;;;11.60;99.90;;;12.09;100.00;95020.34;5028894;28;20518;-79
2023/11/02 10:11:51;;;;;;;2.50;1.07;;;11.60;99.90;;;12.10;100.00;95006.19;5030113;28;20472;-79
2023/11/02 10:14:22;;;;;;;1.40;1.00;;;11.60;99.90;;;12.14;100.00;95020.31;5027463;28;20477;-79
2023/11/02 10:17:02;;;;;;;2.10;1.17;;;11.70;99.90;;;12.16;100.00;95020.81;5030769;28;20473;-79
2023/11/02 10:19:33;;;;;;;9.13;1.20;;;11.70;99.90;;;12.16;100.00;95015.59;5029085;28;20458;-79
2023/11/02 10:22:05;;;;;;;2.10;1.10;;;11.70;99.90;;;12.19;100.00;95016.88;5025308;28;20473;-79
2023/11/02 10:24:36;;;;;;;5.77;1.30;;;11.70;99.90;;;12.17;100.00;95001.44;5027076;28;21264;-77
2023/11/02 10:27:07;;;;;;;4.40;1.20;;;11.80;99.90;;;12.15;100.00;94998.31;5027764;28;20504;-80
2023/11/02 10:29:38;;;;;;;1.13;0.87;;;11.80;99.90;;;12.16;100.00;95004.31;5027715;28;20475;-78
2023/11/02 10:32:12;;;;;;;1.10;1.00;;;11.80;99.90;;;12.14;100.00;95009.06;5030587;28;20490;-78
2023/11/02 10:34:44;;;;;;;3.37;1.03;;;11.70;99.90;;;12.14;100.00;94991.50;5030082;28;20484;-78
2023/11/02 10:37:14;;;;;;;5.00;1.40;;;11.70;99.90;;;12.15;100.00;95006.16;5029663;28;20489;-78
2023/11/02 10:39:45;;;;;;;3.80;1.37;;;11.70;99.90;;;12.16;100.00;95005.09;5030869;28;20975;-78
2023/11/02 10:42:18;;;;;;;2.17;1.03;;;11.80;99.90;;;12.20;100.00;94995.66;5027167;28;20512;-79